createdAt,value
2022-11-28T00:00:06.417Z,1.94
2022-11-28T00:02:33.025Z,1.91
2022-11-28T00:04:59.646Z,1.98
2022-11-28T00:07:26.351Z,1.96
2022-11-28T00:09:53.003Z,1.98
2022-11-28T00:12:19.690Z,2.03
2022-11-28T00:14:46.219Z,1.99
2022-11-28T00:17:12.738Z,2.00
2022-11-28T00:19:39.248Z,1.99
2022-11-28T00:22:05.781Z,2.01
2022-11-28T00:24:32.360Z,2.01
2022-11-28T00:26:58.857Z,2.01
2022-11-28T00:29:25.331Z,2.01
2022-11-28T00:31:51.988Z,2.00
2022-11-28T00:34:18.487Z,2.00
2022-11-28T00:36:46.989Z,2.01
2022-11-28T00:39:15.131Z,1.98
2022-11-28T00:41:42.299Z,2.04
2022-11-28T00:44:08.855Z,2.03
2022-11-28T00:46:35.650Z,2.05
2022-11-28T00:49:02.590Z,2.04
2022-11-28T00:51:31.724Z,2.01
2022-11-28T00:54:00.478Z,1.98
2022-11-28T00:56:30.183Z,2.01
2022-11-28T00:58:58.745Z,1.99
2022-11-28T01:01:34.181Z,2.01
2022-11-28T01:04:03.464Z,1.98
2022-11-28T01:06:32.871Z,1.99
2022-11-28T01:09:03.532Z,2.00
2022-11-28T01:11:30.759Z,1.98
2022-11-28T01:13:59.685Z,1.94
2022-11-28T01:16:27.049Z,1.94
2022-11-28T01:18:53.696Z,1.94
2022-11-28T01:21:21.202Z,1.92
2022-11-28T01:23:47.744Z,1.90
2022-11-28T01:26:21.881Z,1.88
2022-11-28T01:28:49.050Z,1.90
2022-11-28T01:31:19.062Z,1.99
2022-11-28T01:33:45.696Z,1.97
2022-11-28T01:36:14.037Z,1.99
2022-11-28T01:38:41.274Z,1.99
2022-11-28T01:41:08.400Z,1.96
2022-11-28T01:43:35.834Z,1.99
2022-11-28T01:46:04.561Z,2.02
2022-11-28T01:48:42.529Z,1.99
2022-11-28T01:51:10.272Z,2.01
2022-11-28T01:53:42.839Z,2.02
2022-11-28T01:56:15.611Z,2.02
2022-11-28T01:58:46.579Z,2.04
2022-11-28T02:01:13.422Z,2.06
2022-11-28T02:03:45.232Z,2.02
2022-11-28T02:06:14.686Z,2.03
2022-11-28T02:08:41.939Z,2.00
2022-11-28T02:11:27.255Z,1.96
2022-11-28T02:14:16.087Z,1.94
2022-11-28T02:16:57.811Z,1.94
2022-11-28T02:19:27.467Z,1.91
2022-11-28T02:21:58.707Z,1.89
2022-11-28T02:24:46.566Z,1.82
2022-11-28T02:27:50.148Z,1.83
2022-11-28T02:30:46.026Z,1.79
2022-11-28T02:33:36.126Z,1.78
2022-11-28T02:36:09.138Z,1.77
2022-11-28T02:38:57.886Z,1.74
2022-11-28T02:41:42.811Z,1.75
2022-11-28T02:44:18.058Z,1.78
2022-11-28T02:47:14.301Z,1.82
2022-11-28T02:49:46.709Z,1.78
2022-11-28T02:52:18.865Z,1.74
2022-11-28T02:54:46.581Z,1.74
2022-11-28T02:57:13.175Z,1.72
2022-11-28T02:59:39.860Z,1.71
2022-11-28T03:02:15.307Z,1.70
2022-11-28T03:05:12.599Z,1.66
2022-11-28T03:07:48.241Z,1.66
2022-11-28T03:10:30.542Z,1.67
2022-11-28T03:13:27.764Z,1.69
2022-11-28T03:16:17.835Z,1.64
2022-11-28T03:19:13.976Z,1.63
2022-11-28T03:21:47.383Z,1.67
2022-11-28T03:24:34.068Z,1.64
2022-11-28T03:27:05.819Z,1.62
2022-11-28T03:29:37.907Z,1.59
2022-11-28T03:32:09.911Z,1.56
2022-11-28T03:34:44.911Z,1.54
2022-11-28T03:37:18.096Z,1.56
2022-11-28T03:39:51.483Z,1.53
2022-11-28T03:42:25.846Z,1.52
2022-11-28T03:45:10.718Z,1.52
2022-11-28T03:47:45.032Z,1.51
2022-11-28T03:50:23.654Z,1.51
2022-11-28T03:52:57.126Z,1.54
2022-11-28T03:55:32.417Z,1.53
2022-11-28T03:58:15.007Z,1.52
2022-11-28T04:01:08.577Z,1.51
2022-11-28T04:03:47.068Z,1.48
2022-11-28T04:06:43.815Z,1.43
2022-11-28T04:09:22.484Z,1.40
2022-11-28T04:11:56.572Z,1.40
2022-11-28T04:14:37.079Z,1.40
2022-11-28T04:17:12.738Z,1.38
2022-11-28T04:19:47.402Z,1.39
2022-11-28T04:22:23.260Z,1.40
2022-11-28T04:24:59.852Z,1.37
2022-11-28T04:27:35.551Z,1.37
2022-11-28T04:30:04.451Z,1.33
2022-11-28T04:32:36.413Z,1.31
2022-11-28T04:35:08.292Z,1.27
2022-11-28T04:37:38.946Z,1.28
2022-11-28T04:40:09.819Z,1.25
2022-11-28T04:42:48.695Z,1.27
2022-11-28T04:45:32.096Z,1.25
2022-11-28T04:47:58.898Z,1.26
2022-11-28T04:50:31.199Z,1.34
2022-11-28T04:53:05.538Z,1.36
2022-11-28T04:56:11.706Z,1.35
2022-11-28T04:58:44.303Z,1.34
2022-11-28T05:01:17.861Z,1.37
2022-11-28T05:03:44.724Z,1.38
2022-11-28T05:06:11.337Z,1.41
2022-11-28T05:08:37.976Z,1.41
2022-11-28T05:11:04.747Z,1.43
2022-11-28T05:13:31.286Z,1.42
2022-11-28T05:16:00.639Z,1.46
2022-11-28T05:18:27.254Z,1.45
2022-11-28T05:20:53.766Z,1.49
2022-11-28T05:23:20.426Z,1.50
2022-11-28T05:25:46.957Z,1.51
2022-11-28T05:28:13.481Z,1.49
2022-11-28T05:30:40.078Z,1.51
2022-11-28T05:33:06.606Z,1.48
2022-11-28T05:35:33.187Z,1.48
2022-11-28T05:37:59.736Z,1.51
2022-11-28T05:40:26.425Z,1.51
2022-11-28T05:42:52.980Z,1.50
2022-11-28T05:45:19.516Z,1.53
2022-11-28T05:47:46.053Z,1.51
2022-11-28T05:50:12.618Z,1.53
2022-11-28T05:52:39.154Z,1.52
2022-11-28T05:55:06.256Z,1.57
2022-11-28T05:57:32.832Z,1.57
2022-11-28T05:59:59.543Z,1.55
2022-11-28T06:02:26.336Z,1.54
2022-11-28T06:04:53.007Z,1.57
2022-11-28T06:07:19.981Z,1.57
2022-11-28T06:09:46.525Z,1.61
2022-11-28T06:12:13.428Z,1.58
2022-11-28T06:14:40.000Z,1.57
2022-11-28T06:17:06.619Z,1.60
2022-11-28T06:19:33.196Z,1.59
2022-11-28T06:21:59.727Z,1.61
2022-11-28T06:24:26.334Z,1.64
2022-11-28T06:26:52.859Z,1.67
2022-11-28T06:29:19.423Z,1.72
2022-11-28T06:31:46.078Z,1.74
2022-11-28T06:34:13.152Z,1.76
2022-11-28T06:36:40.041Z,1.77
2022-11-28T06:39:06.696Z,1.84
2022-11-28T06:41:33.250Z,1.83
2022-11-28T06:44:00.048Z,1.87
2022-11-28T06:46:26.716Z,1.88
2022-11-28T06:48:53.561Z,1.94
2022-11-28T06:51:20.905Z,1.93
2022-11-28T06:53:47.643Z,1.93
2022-11-28T06:56:17.642Z,1.94
2022-11-28T06:58:45.477Z,1.96
2022-11-28T07:01:18.323Z,2.01
2022-11-28T07:03:45.470Z,2.04
2022-11-28T07:06:12.620Z,2.03
2022-11-28T07:08:39.822Z,2.08
2022-11-28T07:11:24.412Z,2.10
2022-11-28T07:13:51.463Z,2.14
2022-11-28T07:16:21.905Z,2.15
2022-11-28T07:18:48.973Z,2.13
2022-11-28T07:21:15.999Z,2.13
2022-11-28T07:23:44.094Z,2.16
2022-11-28T07:26:12.881Z,2.19
2022-11-28T07:28:39.889Z,2.20
2022-11-28T07:31:06.343Z,2.26
2022-11-28T07:33:34.737Z,2.28
2022-11-28T07:36:02.576Z,2.31
2022-11-28T07:38:29.178Z,2.30
2022-11-28T07:40:55.994Z,2.32
2022-11-28T07:43:22.546Z,2.35
2022-11-28T07:46:00.399Z,2.39
2022-11-28T07:48:27.343Z,2.40
2022-11-28T07:50:53.868Z,2.40
2022-11-28T07:53:20.786Z,2.45
2022-11-28T07:55:47.324Z,2.47
2022-11-28T07:58:13.851Z,2.48
2022-11-28T08:00:40.744Z,2.54
2022-11-28T08:03:07.307Z,2.57
2022-11-28T08:05:34.076Z,2.57
2022-11-28T08:08:00.950Z,2.65
2022-11-28T08:10:27.732Z,2.64
2022-11-28T08:12:54.244Z,2.62
2022-11-28T08:15:20.733Z,2.62
2022-11-28T08:17:47.314Z,2.63
2022-11-28T08:20:13.999Z,2.62
2022-11-28T08:22:40.812Z,2.70
2022-11-28T08:25:07.598Z,2.77
2022-11-28T08:27:34.922Z,2.81
2022-11-28T08:30:01.505Z,2.79
2022-11-28T08:32:30.542Z,2.82
2022-11-28T08:34:57.149Z,2.87
2022-11-28T08:37:23.644Z,2.89
2022-11-28T08:39:50.145Z,2.97
2022-11-28T08:42:16.741Z,2.98
2022-11-28T08:44:43.213Z,3.00
2022-11-28T08:47:09.758Z,3.02
2022-11-28T08:49:37.426Z,3.06
2022-11-28T08:52:04.675Z,3.10
2022-11-28T08:54:31.627Z,3.07
2022-11-28T08:56:59.018Z,3.12
2022-11-28T08:59:25.852Z,3.13
2022-11-28T09:01:53.781Z,3.09
2022-11-28T09:04:22.075Z,3.04
2022-11-28T09:06:48.775Z,3.04
2022-11-28T09:09:15.866Z,3.04
2022-11-28T09:11:42.490Z,3.02
2022-11-28T09:14:08.907Z,3.06
2022-11-28T09:16:35.604Z,3.10
2022-11-28T09:19:02.318Z,3.09
2022-11-28T09:21:28.957Z,3.11
2022-11-28T09:23:56.502Z,3.13
2022-11-28T09:26:24.763Z,3.20
2022-11-28T09:28:52.231Z,3.23
2022-11-28T09:31:20.181Z,3.28
2022-11-28T09:33:49.147Z,3.30
2022-11-28T09:36:21.882Z,3.35
2022-11-28T09:38:49.536Z,3.32
2022-11-28T09:41:43.062Z,3.37
2022-11-28T09:44:17.501Z,3.38
2022-11-28T09:46:44.852Z,3.42
2022-11-28T09:49:22.215Z,3.49
2022-11-28T09:51:58.633Z,3.54
2022-11-28T09:55:08.630Z,3.64
2022-11-28T09:57:40.355Z,3.63
2022-11-28T10:00:16.898Z,3.67
2022-11-28T10:03:04.415Z,3.72
2022-11-28T10:05:52.387Z,3.75
2022-11-28T10:08:41.571Z,3.83
2022-11-28T10:11:32.412Z,3.87
2022-11-28T10:14:08.803Z,3.91
2022-11-28T10:16:54.018Z,3.96
2022-11-28T10:20:04.859Z,3.99
2022-11-28T10:22:41.569Z,3.98
2022-11-28T10:25:41.141Z,3.95
2022-11-28T10:28:15.083Z,3.96
2022-11-28T10:30:46.321Z,3.96
2022-11-28T10:33:26.886Z,3.88
2022-11-28T10:35:53.566Z,3.86
2022-11-28T10:38:25.670Z,3.83
2022-11-28T10:41:04.787Z,3.84
2022-11-28T10:43:48.788Z,3.74
2022-11-28T10:46:40.366Z,3.75
2022-11-28T10:49:44.642Z,3.80
2022-11-28T10:52:31.667Z,3.79
2022-11-28T10:55:10.227Z,3.78
2022-11-28T11:00:35.352Z,3.82
2022-11-28T11:03:04.086Z,3.84
2022-11-28T11:05:33.640Z,3.81
2022-11-28T11:08:20.865Z,3.87
2022-11-28T11:11:00.033Z,3.91
2022-11-28T11:13:29.580Z,3.93
2022-11-28T11:16:07.599Z,3.93
2022-11-28T11:18:38.908Z,3.97
2022-11-28T11:21:23.934Z,4.02
2022-11-28T11:24:12.142Z,4.01
2022-11-28T11:26:41.712Z,4.06
2022-11-28T11:29:29.800Z,4.05
2022-11-28T11:32:03.455Z,4.08
2022-11-28T11:34:36.299Z,4.13
2022-11-28T11:37:38.852Z,4.19
2022-11-28T11:40:22.656Z,4.24
2022-11-28T11:42:58.541Z,4.27
2022-11-28T11:45:35.415Z,4.24
2022-11-28T11:48:03.617Z,4.25
2022-11-28T11:50:31.959Z,4.26
2022-11-28T11:53:12.927Z,4.28
2022-11-28T11:55:51.539Z,4.27
2022-11-28T11:58:28.834Z,4.22
2022-11-28T12:00:58.763Z,4.20
2022-11-28T12:03:39.773Z,4.24
2022-11-28T12:06:20.410Z,4.22
2022-11-28T12:08:51.761Z,4.23
2022-11-28T12:11:28.413Z,4.20
2022-11-28T12:14:03.197Z,4.20
2022-11-28T12:16:43.179Z,4.25
2022-11-28T12:19:28.312Z,4.21
2022-11-28T12:22:12.253Z,4.19
2022-11-28T12:24:50.275Z,4.17
2022-11-28T12:27:33.236Z,4.22
2022-11-28T12:30:21.488Z,4.25
2022-11-28T12:33:09.411Z,4.26
2022-11-28T12:35:43.602Z,4.31
2022-11-28T12:38:24.807Z,4.35
2022-11-28T12:41:20.218Z,4.33
2022-11-28T12:44:21.338Z,4.36
2022-11-28T12:46:57.628Z,4.39
2022-11-28T12:49:43.261Z,4.41
2022-11-28T12:52:25.274Z,4.42
2022-11-28T12:55:17.759Z,4.38
2022-11-28T12:57:48.798Z,4.40
2022-11-28T13:00:15.223Z,4.40
2022-11-28T13:02:44.530Z,4.43
2022-11-28T13:05:20.568Z,4.40
2022-11-28T13:08:28.406Z,4.38
2022-11-28T13:11:04.250Z,4.31
2022-11-28T13:13:43.732Z,4.31
2022-11-28T13:16:28.515Z,4.26
2022-11-28T13:19:05.423Z,4.22
2022-11-28T13:21:31.773Z,4.28
2022-11-28T13:24:20.070Z,4.28
2022-11-28T13:27:05.591Z,4.18
2022-11-28T13:29:36.233Z,4.17
2022-11-28T13:32:28.309Z,4.10
2022-11-28T13:34:55.381Z,4.10
2022-11-28T13:40:38.347Z,4.08
2022-11-28T13:43:19.597Z,4.04
2022-11-28T13:45:47.324Z,4.06
2022-11-28T13:49:06.189Z,3.98
2022-11-28T13:51:33.877Z,3.99
2022-11-28T13:54:21.573Z,3.95
2022-11-28T13:57:12.131Z,3.96
2022-11-28T13:59:39.280Z,3.92
2022-11-28T14:02:21.705Z,3.91
2022-11-28T14:04:48.627Z,3.90
2022-11-28T14:07:31.114Z,3.90
2022-11-28T14:10:33.846Z,3.86
2022-11-28T14:13:44.006Z,3.81
2022-11-28T14:16:25.345Z,3.81
2022-11-28T14:19:15.148Z,3.82
2022-11-28T14:22:00.531Z,3.76
2022-11-28T14:24:36.347Z,3.71
2022-11-28T14:27:05.661Z,3.71
2022-11-28T14:29:39.778Z,3.72
2022-11-28T14:32:28.892Z,3.70
2022-11-28T14:34:53.515Z,3.67
2022-11-28T14:37:20.258Z,3.66
2022-11-28T14:39:48.491Z,3.60
2022-11-28T14:42:30.579Z,3.57
2022-11-28T14:45:21.040Z,3.57
2022-11-28T14:48:07.433Z,3.57
2022-11-28T14:50:36.810Z,3.56
2022-11-28T14:53:37.376Z,3.51
2022-11-28T14:56:15.902Z,3.49
2022-11-28T14:58:55.652Z,3.48
2022-11-28T15:01:39.171Z,3.51
2022-11-28T15:04:38.807Z,3.47
2022-11-28T15:07:19.001Z,3.49
2022-11-28T15:10:02.700Z,3.45
2022-11-28T15:12:42.745Z,3.45
2022-11-28T15:15:14.651Z,3.45
2022-11-28T15:17:44.173Z,3.42
2022-11-28T15:20:44.509Z,3.42
2022-11-28T15:23:24.419Z,3.46
2022-11-28T15:25:56.117Z,3.43
2022-11-28T15:28:25.491Z,3.38
2022-11-28T15:30:53.311Z,3.39
2022-11-28T15:33:21.291Z,3.43
2022-11-28T15:35:59.494Z,3.43
2022-11-28T15:38:27.667Z,3.48
2022-11-28T15:40:55.973Z,3.45
2022-11-28T15:43:24.014Z,3.44
2022-11-28T15:45:58.559Z,3.38
2022-11-28T15:48:38.753Z,3.38
2022-11-28T15:51:07.932Z,3.37
2022-11-28T15:53:41.127Z,3.36
2022-11-28T15:56:08.838Z,3.38
2022-11-28T15:58:35.595Z,3.37
2022-11-28T16:01:12.761Z,3.44
2022-11-28T16:03:48.825Z,3.41
2022-11-28T16:06:18.132Z,3.40
2022-11-28T16:08:56.294Z,3.37
2022-11-28T16:11:26.145Z,3.43
2022-11-28T16:13:56.022Z,3.42
2022-11-28T16:16:30.102Z,3.41
2022-11-28T16:19:02.343Z,3.41
2022-11-28T16:21:33.372Z,3.41
2022-11-28T16:24:01.740Z,3.41
2022-11-28T16:26:35.349Z,3.41
2022-11-28T16:29:07.885Z,3.43
2022-11-28T16:31:35.387Z,3.42
2022-11-28T16:34:02.918Z,3.44
2022-11-28T16:36:36.855Z,3.44
2022-11-28T16:39:06.083Z,3.48
2022-11-28T16:41:33.482Z,3.47
2022-11-28T16:44:05.891Z,3.47
2022-11-28T16:46:41.095Z,3.46
2022-11-28T16:49:31.987Z,3.48
2022-11-28T16:52:21.097Z,3.53
2022-11-28T16:54:48.876Z,3.54
2022-11-28T16:57:15.748Z,3.52
2022-11-28T16:59:44.096Z,3.53
2022-11-28T17:02:20.439Z,3.49
2022-11-28T17:04:49.498Z,3.49
2022-11-28T17:07:25.328Z,3.48
2022-11-28T17:09:51.887Z,3.50
2022-11-28T17:12:29.487Z,3.51
2022-11-28T17:14:56.232Z,3.52
2022-11-28T17:17:23.542Z,3.54
2022-11-28T17:19:51.053Z,3.58
2022-11-28T17:22:21.576Z,3.55
2022-11-28T17:24:49.698Z,3.54
2022-11-28T17:27:16.829Z,3.56
2022-11-28T17:29:43.678Z,3.54
2022-11-28T17:32:13.462Z,3.54
2022-11-28T17:34:42.059Z,3.56
2022-11-28T17:37:09.315Z,3.54
2022-11-28T17:39:35.862Z,3.57
2022-11-28T17:42:02.341Z,3.59
2022-11-28T17:44:31.743Z,3.60
2022-11-28T17:47:00.600Z,3.60
2022-11-28T17:49:28.097Z,3.60
2022-11-28T17:51:56.006Z,3.60
2022-11-28T17:54:24.494Z,3.60
2022-11-28T17:56:52.618Z,3.59
2022-11-28T17:59:21.504Z,3.59
2022-11-28T18:01:48.502Z,3.61
2022-11-28T18:04:15.189Z,3.61
2022-11-28T18:06:45.296Z,3.61
2022-11-28T18:09:13.057Z,3.61
2022-11-28T18:11:40.994Z,3.66
2022-11-28T18:14:07.714Z,3.62
2022-11-28T18:16:36.132Z,3.63
2022-11-28T18:19:04.342Z,3.62
2022-11-28T18:21:31.738Z,3.61
2022-11-28T18:23:58.425Z,3.64
2022-11-28T18:26:26.307Z,3.60
2022-11-28T18:28:53.656Z,3.60
2022-11-28T18:31:24.522Z,3.60
2022-11-28T18:33:51.831Z,3.59
2022-11-28T18:36:21.575Z,3.61
2022-11-28T18:38:48.587Z,3.62
2022-11-28T18:41:16.036Z,3.59
2022-11-28T18:43:44.010Z,3.59
2022-11-28T18:46:15.844Z,3.64
2022-11-28T18:48:44.999Z,3.62
2022-11-28T18:51:15.251Z,3.63
2022-11-28T18:53:42.563Z,3.59
2022-11-28T18:56:09.397Z,3.61
2022-11-28T18:58:41.360Z,3.61
2022-11-28T19:01:19.805Z,3.61
2022-11-28T19:03:51.049Z,3.58
2022-11-28T19:06:18.048Z,3.59
2022-11-28T19:08:44.702Z,3.56
2022-11-28T19:11:14.446Z,3.59
2022-11-28T19:13:42.936Z,3.58
2022-11-28T19:16:21.080Z,3.60
2022-11-28T19:18:47.616Z,3.58
2022-11-28T19:21:16.847Z,3.60
2022-11-28T19:23:44.026Z,3.60
2022-11-28T19:26:12.302Z,3.58
2022-11-28T19:28:40.594Z,3.58
2022-11-28T19:31:33.563Z,3.59
2022-11-28T19:34:07.542Z,3.62
2022-11-28T19:36:40.849Z,3.62
2022-11-28T19:39:17.134Z,3.58
2022-11-28T19:41:44.664Z,3.60
2022-11-28T19:44:12.014Z,3.64
2022-11-28T19:46:39.015Z,3.67
2022-11-28T19:49:06.265Z,3.67
2022-11-28T19:51:33.368Z,3.68
2022-11-28T19:54:03.585Z,3.75
2022-11-28T19:56:31.392Z,3.69
2022-11-28T19:58:58.614Z,3.68
2022-11-28T20:01:25.584Z,3.65
2022-11-28T20:03:52.795Z,3.62
2022-11-28T20:06:24.762Z,3.60
2022-11-28T20:08:53.137Z,3.55
2022-11-28T20:11:25.401Z,3.53
2022-11-28T20:14:11.509Z,3.53
2022-11-28T20:16:38.551Z,3.51
2022-11-28T20:19:05.735Z,3.48
2022-11-28T20:21:32.629Z,3.47
2022-11-28T20:24:05.201Z,3.49
2022-11-28T20:26:36.327Z,3.45
2022-11-28T20:29:02.869Z,3.45
2022-11-28T20:31:33.968Z,3.47
2022-11-28T20:34:01.508Z,3.49
2022-11-28T20:36:30.160Z,3.48
2022-11-28T20:38:57.502Z,3.43
2022-11-28T20:41:26.148Z,3.44
2022-11-28T20:43:53.293Z,3.43
2022-11-28T20:46:22.605Z,3.42
2022-11-28T20:48:50.503Z,3.44
2022-11-28T20:51:20.208Z,3.48
2022-11-28T20:53:46.918Z,3.44
2022-11-28T20:56:19.392Z,3.46
2022-11-28T20:58:46.284Z,3.43
2022-11-28T21:01:15.531Z,3.45
2022-11-28T21:03:42.621Z,3.43
2022-11-28T21:06:09.377Z,3.41
2022-11-28T21:08:36.646Z,3.42
2022-11-28T21:11:30.925Z,3.44
2022-11-28T21:14:02.458Z,3.42
2022-11-28T21:16:31.376Z,3.41
2022-11-28T21:19:07.713Z,3.43
2022-11-28T21:21:35.332Z,3.44
2022-11-28T21:24:04.688Z,3.47
2022-11-28T21:26:37.587Z,3.48
2022-11-28T21:29:09.068Z,3.49
2022-11-28T21:31:37.971Z,3.51
2022-11-28T21:34:04.613Z,3.49
2022-11-28T21:36:31.953Z,3.49
2022-11-28T21:39:00.243Z,3.49
2022-11-28T21:41:29.223Z,3.50
2022-11-28T21:43:56.447Z,3.52
2022-11-28T21:46:23.021Z,3.52
2022-11-28T21:48:49.619Z,3.55
2022-11-28T21:51:24.160Z,3.53
2022-11-28T21:53:51.332Z,3.54
2022-11-28T21:56:18.331Z,3.55
2022-11-28T21:58:44.843Z,3.57
2022-11-28T22:01:13.908Z,3.60
2022-11-28T22:03:41.732Z,3.60
2022-11-28T22:06:20.213Z,3.61
2022-11-28T22:08:48.600Z,3.60
2022-11-28T22:11:15.623Z,3.59
2022-11-28T22:13:42.993Z,3.60
2022-11-28T22:16:16.103Z,3.63
2022-11-28T22:18:43.400Z,3.60
2022-11-28T22:21:43.276Z,3.63
2022-11-28T22:23:56.892Z,3.65
2022-11-28T22:26:23.397Z,3.68
2022-11-28T22:28:53.593Z,3.65
2022-11-28T22:31:21.059Z,3.66
2022-11-28T22:33:49.032Z,3.64
2022-11-28T22:36:18.579Z,3.64
2022-11-28T22:38:46.552Z,3.68
2022-11-28T22:41:15.221Z,3.66
2022-11-28T22:43:42.148Z,3.66
2022-11-28T22:46:10.252Z,3.65
2022-11-28T22:48:38.165Z,3.67
2022-11-28T22:51:09.792Z,3.69
2022-11-28T22:53:36.556Z,3.69
2022-11-28T22:56:12.252Z,3.65
2022-11-28T22:58:43.892Z,3.66
2022-11-28T23:01:17.198Z,3.66
2022-11-28T23:03:44.280Z,3.69
2022-11-28T23:06:12.452Z,3.65
2022-11-28T23:08:39.450Z,3.65
2022-11-28T23:11:10.154Z,3.65
2022-11-28T23:13:37.925Z,3.63
2022-11-28T23:16:17.283Z,3.63
2022-11-28T23:18:45.633Z,3.65
2022-11-28T23:21:13.524Z,3.66
2022-11-28T23:23:40.503Z,3.65
2022-11-28T23:26:08.224Z,3.64
2022-11-28T23:28:35.464Z,3.63
2022-11-28T23:31:11.035Z,3.63
2022-11-28T23:33:38.215Z,3.63
2022-11-28T23:36:21.414Z,3.65
2022-11-28T23:38:50.387Z,3.63
2022-11-28T23:41:17.016Z,3.68
2022-11-28T23:43:44.154Z,3.63
2022-11-28T23:46:12.500Z,3.63
2022-11-28T23:48:39.497Z,3.62
2022-11-28T23:51:07.201Z,3.66
2022-11-28T23:53:35.150Z,3.65
2022-11-28T23:56:12.178Z,3.62
2022-11-28T23:58:39.338Z,3.64
